createdAt,value
2022-12-31T07:34:34.812Z,90.40
2022-12-31T07:40:12.195Z,90.46
2022-12-31T07:45:24.424Z,90.38
2022-12-31T07:50:26.777Z,90.48
2022-12-31T07:55:28.965Z,90.79
2022-12-31T08:00:31.343Z,90.56
2022-12-31T08:06:07.790Z,90.34
2022-12-31T08:11:28.823Z,89.72
2022-12-31T08:16:31.297Z,89.57
2022-12-31T08:21:43.722Z,89.21
2022-12-31T08:26:58.790Z,88.70
2022-12-31T08:32:06.971Z,88.42
2022-12-31T08:37:16.947Z,88.00
2022-12-31T08:43:06.597Z,87.41
2022-12-31T08:48:26.732Z,87.05
2022-12-31T08:53:29.112Z,87.21
2022-12-31T08:58:44.895Z,86.67
2022-12-31T09:03:59.166Z,86.04
2022-12-31T09:09:16.545Z,85.29
2022-12-31T09:14:18.597Z,85.53
2022-12-31T09:19:20.767Z,85.37
2022-12-31T09:24:23.182Z,85.26
2022-12-31T09:29:41.550Z,85.27
2022-12-31T09:35:12.986Z,85.15
2022-12-31T09:40:54.458Z,85.48
2022-12-31T09:46:02.424Z,85.43
2022-12-31T09:51:29.621Z,85.28
2022-12-31T09:57:17.704Z,85.25
2022-12-31T10:02:41.251Z,84.15
2022-12-31T10:08:12.765Z,83.59
2022-12-31T10:13:27.387Z,82.92
2022-12-31T10:18:44.350Z,82.08
2022-12-31T10:24:13.826Z,82.25
2022-12-31T10:29:48.103Z,82.16
2022-12-31T10:35:15.086Z,81.22
2022-12-31T10:40:41.921Z,80.81
2022-12-31T10:46:33.567Z,80.99
2022-12-31T10:51:44.557Z,81.37
2022-12-31T10:57:17.625Z,81.64
2022-12-31T11:02:57.510Z,81.73
2022-12-31T11:08:14.677Z,81.45
2022-12-31T11:13:28.899Z,81.54
2022-12-31T11:18:42.153Z,81.86
2022-12-31T11:24:23.032Z,82.11
2022-12-31T11:29:54.128Z,82.22
2022-12-31T11:35:15.007Z,82.35
2022-12-31T11:40:54.273Z,82.14
2022-12-31T11:45:59.375Z,81.86
2022-12-31T11:51:36.168Z,82.01
2022-12-31T11:56:41.703Z,81.08
2022-12-31T12:01:43.747Z,80.50
2022-12-31T12:06:46.115Z,79.96
2022-12-31T12:12:00.134Z,79.59
2022-12-31T12:17:06.753Z,79.96
2022-12-31T12:22:35.072Z,79.72
2022-12-31T12:27:37.260Z,79.19
2022-12-31T12:32:39.371Z,79.08
2022-12-31T12:37:41.448Z,78.47
2022-12-31T12:42:48.466Z,77.96
2022-12-31T12:47:56.640Z,77.63
2022-12-31T12:53:17.245Z,77.32
2022-12-31T12:58:42.119Z,76.39
2022-12-31T13:04:33.900Z,76.69
2022-12-31T13:09:58.038Z,76.91
2022-12-31T13:15:18.534Z,77.68
2022-12-31T13:20:39.291Z,78.10
2022-12-31T13:26:03.080Z,78.89
2022-12-31T13:31:09.579Z,78.99
2022-12-31T13:36:18.730Z,79.08
2022-12-31T13:41:33.297Z,79.88
2022-12-31T13:46:51.901Z,80.12
2022-12-31T13:52:27.658Z,80.38
2022-12-31T13:57:36.805Z,80.06
2022-12-31T14:03:05.172Z,79.88
2022-12-31T14:08:07.725Z,80.48
2022-12-31T14:13:09.740Z,80.49
2022-12-31T14:18:33.146Z,80.31
2022-12-31T14:23:56.777Z,80.33
2022-12-31T14:29:11.257Z,80.35
2022-12-31T14:34:30.060Z,80.75
2022-12-31T14:40:07.764Z,80.94
2022-12-31T14:45:28.598Z,81.48
2022-12-31T14:50:33.909Z,81.78
2022-12-31T14:55:38.920Z,82.33
2022-12-31T15:00:53.368Z,82.59
2022-12-31T15:06:29.091Z,82.98
2022-12-31T15:11:55.908Z,83.21
2022-12-31T15:17:34.528Z,83.62
2022-12-31T15:22:53.756Z,84.06
2022-12-31T15:27:58.827Z,84.00
2022-12-31T15:33:05.159Z,83.95
2022-12-31T15:38:13.061Z,83.93
2022-12-31T15:43:29.299Z,84.16
2022-12-31T15:49:03.492Z,84.43
2022-12-31T15:54:16.301Z,84.58
2022-12-31T15:59:20.500Z,84.38
2022-12-31T16:04:32.615Z,84.52
2022-12-31T16:09:35.950Z,85.32
2022-12-31T16:14:43.677Z,85.34
2022-12-31T16:19:48.715Z,85.11
2022-12-31T16:25:29.607Z,85.28
2022-12-31T16:30:22.852Z,85.49
2022-12-31T16:35:29.848Z,85.54
2022-12-31T16:40:31.953Z,85.59
2022-12-31T16:45:36.492Z,86.18
2022-12-31T16:50:38.670Z,86.48
2022-12-31T16:55:41.328Z,86.77
2022-12-31T17:00:44.374Z,87.02
2022-12-31T17:06:09.341Z,87.29
2022-12-31T17:11:23.506Z,87.73
2022-12-31T17:16:26.241Z,87.91
2022-12-31T17:21:31.303Z,88.11
2022-12-31T17:26:38.236Z,87.85
2022-12-31T17:31:57.501Z,87.89
2022-12-31T17:37:02.591Z,87.93
2022-12-31T17:42:04.877Z,88.07
2022-12-31T17:47:11.802Z,88.11
2022-12-31T17:52:15.751Z,88.16
2022-12-31T17:57:27.568Z,88.08
2022-12-31T18:02:29.768Z,88.37
2022-12-31T18:07:32.068Z,88.66
2022-12-31T18:12:35.553Z,88.65
2022-12-31T18:17:37.623Z,89.15
2022-12-31T18:22:41.369Z,89.01
2022-12-31T18:27:43.467Z,89.59
2022-12-31T18:32:46.021Z,89.76
2022-12-31T18:37:49.303Z,90.22
2022-12-31T18:42:51.399Z,90.22
2022-12-31T18:47:55.620Z,90.25
2022-12-31T18:52:57.712Z,90.52
2022-12-31T18:57:59.830Z,90.40
2022-12-31T19:03:02.361Z,90.16
2022-12-31T19:08:04.668Z,89.81
2022-12-31T19:13:06.779Z,89.71
2022-12-31T19:18:09.661Z,89.56
2022-12-31T19:23:21.521Z,89.59
2022-12-31T19:28:25.946Z,89.55
2022-12-31T19:33:28.106Z,89.58
2022-12-31T19:38:32.175Z,89.70
2022-12-31T19:43:34.281Z,89.58
2022-12-31T19:48:36.371Z,89.59
2022-12-31T19:53:38.871Z,89.85
2022-12-31T19:58:41.360Z,90.15
2022-12-31T20:03:43.475Z,90.19
2022-12-31T20:08:46.589Z,89.70
2022-12-31T20:13:50.702Z,89.41
2022-12-31T20:18:52.862Z,89.17
2022-12-31T20:23:55.690Z,89.15
2022-12-31T20:28:57.753Z,89.35
2022-12-31T20:33:59.847Z,89.35
2022-12-31T20:39:01.909Z,89.37
2022-12-31T20:44:04.247Z,89.76
2022-12-31T20:49:06.913Z,89.78
2022-12-31T20:54:10.831Z,90.00
2022-12-31T20:59:12.989Z,90.28
2022-12-31T21:04:15.448Z,90.12
2022-12-31T21:09:18.009Z,90.23
2022-12-31T21:14:20.444Z,90.30
2022-12-31T21:19:22.546Z,90.44
2022-12-31T21:24:24.646Z,91.02
2022-12-31T21:29:29.992Z,91.16
2022-12-31T21:34:36.284Z,91.36
2022-12-31T21:39:38.385Z,91.81
2022-12-31T21:44:40.458Z,91.96
2022-12-31T21:49:45.663Z,92.09
2022-12-31T21:55:06.094Z,92.04
2022-12-31T22:00:43.612Z,92.07
2022-12-31T22:05:52.848Z,92.20
2022-12-31T22:10:55.171Z,92.33
2022-12-31T22:16:04.357Z,92.39
2022-12-31T22:21:19.172Z,92.40
2022-12-31T22:26:25.535Z,92.45
2022-12-31T22:31:32.158Z,92.42
2022-12-31T22:36:34.360Z,92.26
2022-12-31T22:41:36.457Z,92.41
2022-12-31T22:46:38.612Z,92.44
2022-12-31T22:51:56.305Z,92.51
2022-12-31T22:57:01.366Z,92.14
2022-12-31T23:02:03.653Z,92.27
2022-12-31T23:07:07.401Z,92.34
2022-12-31T23:12:10.437Z,92.20
2022-12-31T23:17:38.249Z,91.97
